Time;durP1;ratioP1;P1;durP2;ratioP2;P2;SDS_P1;SDS_P2;PMS_P1;PMS_P2;Temp;Humidity;BMP_temperature;BMP_pressure;BME280_temperature;BME280_humidity;BME280_pressure;Samples;Min_cycle;Max_cycle;Signal;HPM_P1;HPM_P2
2021/12/03 00:00:12;;;;;;;9.47;8.80;;;;;;;1.07;68.69;100319.25;4973639;28;20483;-42
2021/12/03 00:02:40;;;;;;;9.20;9.00;;;;;;;1.02;69.54;100324.09;4974109;28;20440;-43
2021/12/03 00:05:10;;;;;;;9.97;9.27;;;;;;;1.00;69.48;100324.25;4974278;28;20442;-43
2021/12/03 00:07:40;;;;;;;8.03;7.67;;;;;;;0.99;69.42;100327.00;4974022;28;20437;-43
2021/12/03 00:10:10;;;;;;;10.03;9.43;;;;;;;0.97;68.31;100319.28;4973589;28;20451;-43
2021/12/03 00:12:38;;;;;;;8.97;8.40;;;;;;;0.99;67.02;100327.00;4973639;28;20531;-42
2021/12/03 00:15:08;;;;;;;9.07;8.40;;;;;;;0.98;67.92;100325.38;4974114;28;20446;-43
2021/12/03 00:17:36;;;;;;;10.80;9.70;;;;;;;0.97;68.69;100326.31;4973984;28;20964;-43
2021/12/03 00:20:05;;;;;;;10.47;9.97;;;;;;;0.97;67.75;100331.59;4973325;28;20461;-42
2021/12/03 00:22:34;;;;;;;10.60;9.77;;;;;;;0.95;68.83;100328.28;4973462;28;20475;-44
2021/12/03 00:25:02;;;;;;;10.00;9.60;;;;;;;0.92;69.64;100339.06;4973565;28;20460;-45
2021/12/03 00:27:30;;;;;;;9.90;9.37;;;;;;;0.92;69.58;100336.44;4973735;28;21090;-43
2021/12/03 00:29:57;;;;;;;9.47;9.17;;;;;;;0.85;70.91;100330.94;4973332;28;20464;-43
2021/12/03 00:32:25;;;;;;;10.90;9.80;;;;;;;0.83;71.03;100334.69;4973660;28;20435;-44
2021/12/03 00:34:53;;;;;;;10.40;9.90;;;;;;;0.79;71.41;100334.13;4973606;28;20826;-42
2021/12/03 00:37:20;;;;;;;10.47;9.87;;;;;;;0.76;70.77;100337.06;4972729;28;20439;-43
2021/12/03 00:39:49;;;;;;;12.13;10.00;;;;;;;0.77;71.17;100337.88;4964727;28;20446;-42
2021/12/03 00:42:18;;;;;;;9.80;9.30;;;;;;;0.74;70.87;100331.13;4973475;28;20480;-45
2021/12/03 00:44:51;;;;;;;9.73;9.30;;;;;;;0.72;71.28;100327.00;4973342;28;20447;-42
2021/12/03 00:47:19;;;;;;;10.50;10.00;;;;;;;0.72;70.88;100340.91;4973097;28;20433;-43
2021/12/03 00:49:47;;;;;;;10.23;9.93;;;;;;;0.70;70.37;100344.66;4966729;28;20440;-42
2021/12/03 00:52:15;;;;;;;11.00;9.97;;;;;;;0.70;68.79;100340.25;4973173;28;20438;-42
2021/12/03 00:54:43;;;;;;;10.20;9.50;;;;;;;0.74;67.32;100338.16;4973155;28;20437;-45
2021/12/03 00:57:12;;;;;;;9.97;9.53;;;;;;;0.74;67.14;100330.31;4973361;28;20784;-42
2021/12/03 00:59:40;;;;;;;11.00;9.80;;;;;;;0.77;65.38;100327.38;4972758;28;20817;-42
2021/12/03 01:02:08;;;;;;;17.70;10.10;;;;;;;0.78;65.51;100327.22;4973068;28;20475;-42
2021/12/03 01:04:36;;;;;;;9.53;8.93;;;;;;;0.83;64.84;100332.06;4972779;28;20448;-42
2021/12/03 01:07:04;;;;;;;9.47;8.60;;;;;;;0.87;63.87;100341.28;4973295;28;20790;-42
2021/12/03 01:09:32;;;;;;;9.37;8.70;;;;;;;0.89;64.79;100336.75;4972906;28;20464;-42
2021/12/03 01:12:00;;;;;;;8.13;7.80;;;;;;;0.91;65.16;100338.25;4972891;28;20449;-41
2021/12/03 01:14:29;;;;;;;9.00;8.03;;;;;;;0.90;66.20;100336.56;4972912;28;20466;-42
2021/12/03 01:16:57;;;;;;;8.40;7.63;;;;;;;0.91;67.07;100346.13;4972972;28;20444;-46
2021/12/03 01:19:25;;;;;;;7.70;7.40;;;;;;;0.94;66.13;100343.19;4973070;28;20453;-42
2021/12/03 01:21:54;;;;;;;7.97;7.60;;;;;;;0.99;65.80;100342.75;4972412;28;20502;-43
2021/12/03 01:24:21;;;;;;;8.10;7.73;;;;;;;1.01;66.99;100348.72;4972761;28;20844;-43
2021/12/03 01:26:53;;;;;;;8.30;7.93;;;;;;;1.01;68.64;100352.16;4972992;28;20455;-44
2021/12/03 01:29:21;;;;;;;8.00;7.70;;;;;;;1.00;70.00;100347.88;4972788;28;20471;-44
2021/12/03 01:31:53;;;;;;;9.50;8.77;;;;;;;0.97;71.38;100352.59;4972337;28;20475;-42
2021/12/03 01:34:21;;;;;;;9.60;9.00;;;;;;;0.95;71.68;100354.53;4972839;28;20443;-46
2021/12/03 01:36:48;;;;;;;9.37;8.87;;;;;;;0.92;73.28;100349.56;4972765;28;20513;-42
2021/12/03 01:39:17;;;;;;;8.80;8.33;;;;;;;0.90;72.35;100346.25;4964490;28;20469;-44
2021/12/03 01:41:45;;;;;;;9.00;8.60;;;;;;;0.88;72.99;100340.31;4972058;28;20477;-47
2021/12/03 01:44:12;;;;;;;8.87;8.27;;;;;;;0.85;73.76;100351.09;4972395;28;20439;-43
2021/12/03 01:46:40;;;;;;;8.73;8.33;;;;;;;0.82;74.43;100360.09;4972912;28;20448;-47
2021/12/03 01:49:12;;;;;;;9.90;9.10;;;;;;;0.80;74.76;100356.81;4974330;28;20472;-45
2021/12/03 01:51:40;;;;;;;8.87;8.27;;;;;;;0.78;74.79;100361.34;4976261;28;20460;-43
2021/12/03 01:54:07;;;;;;;9.20;8.87;;;;;;;0.79;74.24;100356.94;4976852;28;20433;-48
2021/12/03 01:56:37;;;;;;;10.57;9.43;;;;;;;0.78;73.89;100366.59;4976818;28;20971;-45
2021/12/03 01:59:05;;;;;;;9.50;8.67;;;;;;;0.76;75.01;100365.91;4976242;28;20461;-43
2021/12/03 02:01:33;;;;;;;9.10;8.50;;;;;;;0.74;74.85;100362.63;4975862;28;20500;-45
2021/12/03 02:04:02;;;;;;;9.73;8.93;;;;;;;0.70;76.06;100353.38;4976154;28;20438;-42
2021/12/03 02:06:32;;;;;;;8.67;8.10;;;;;;;0.66;76.56;100348.56;4976339;28;20514;-43
2021/12/03 02:09:00;;;;;;;8.90;8.50;;;;;;;0.65;76.17;100349.53;4976165;28;20474;-42
2021/12/03 02:11:28;;;;;;;9.73;8.93;;;;;;;0.64;75.41;100363.59;4975621;28;20572;-42
2021/12/03 02:13:56;;;;;;;9.90;9.27;;;;;;;0.65;75.08;100360.03;4975844;28;20929;-42
2021/12/03 02:16:25;;;;;;;12.13;10.50;;;;;;;0.65;75.03;100362.66;4976225;28;20434;-43
2021/12/03 02:18:54;;;;;;;9.63;9.03;;;;;;;0.63;75.86;100364.59;4976075;28;20459;-43
2021/12/03 02:21:23;;;;;;;10.93;9.73;;;;;;;0.63;74.38;100372.47;4975608;28;20474;-42
2021/12/03 02:23:52;;;;;;;10.07;9.47;;;;;;;0.67;71.18;100394.81;4975587;28;20481;-42
2021/12/03 02:26:20;;;;;;;9.00;8.60;;;;;;;0.75;66.13;100421.16;4975942;28;20433;-42
2021/12/03 02:28:49;;;;;;;11.00;10.17;;;;;;;0.84;57.80;100421.16;4975900;28;20452;-43
2021/12/03 02:31:19;;;;;;;9.90;9.50;;;;;;;0.91;57.34;100405.66;4975474;28;20488;-43
2021/12/03 02:33:47;;;;;;;8.90;8.60;;;;;;;0.94;56.66;100402.75;4975509;28;20522;-43
2021/12/03 02:36:16;;;;;;;10.10;9.57;;;;;;;0.98;57.76;100391.84;4975627;28;20445;-43
2021/12/03 02:38:46;;;;;;;10.77;9.80;;;;;;;1.01;59.14;100367.91;4975431;28;20497;-42
2021/12/03 02:41:14;;;;;;;10.37;9.57;;;;;;;1.05;60.10;100368.44;4975017;28;20848;-42
2021/12/03 02:43:42;;;;;;;9.67;9.17;;;;;;;1.07;61.47;100369.13;4975841;28;20486;-45
2021/12/03 02:46:10;;;;;;;9.40;8.90;;;;;;;1.05;61.81;100353.50;4975553;28;20506;-44
2021/12/03 02:48:38;;;;;;;9.10;8.80;;;;;;;1.04;63.75;100346.63;4975358;28;20458;-44
2021/12/03 02:51:08;;;;;;;10.13;9.40;;;;;;;1.02;64.56;100347.72;4974981;28;20465;-44
2021/12/03 02:53:36;;;;;;;10.37;9.77;;;;;;;0.99;65.20;100355.88;4975535;28;20446;-44
2021/12/03 02:56:07;;;;;;;10.87;10.27;;;;;;;0.97;66.48;100365.72;4975431;28;20450;-44
2021/12/03 02:58:36;;;;;;;9.40;9.00;;;;;;;0.94;65.61;100366.81;4975322;28;20545;-43
2021/12/03 03:01:07;;;;;;;9.33;8.50;;;;;;;0.94;65.77;100364.22;4974099;28;21004;-44
2021/12/03 03:03:34;;;;;;;9.63;9.33;;;;;;;0.93;65.78;100361.72;4974881;28;20476;-44
2021/12/03 03:06:05;;;;;;;9.90;9.33;;;;;;;0.91;64.96;100361.03;4975087;28;20445;-43
2021/12/03 03:08:33;;;;;;;10.47;9.60;;;;;;;0.92;64.69;100360.06;4975079;28;20962;-43
2021/12/03 03:11:03;;;;;;;10.67;10.23;;;;;;;0.92;64.11;100379.28;4974760;28;20489;-44
2021/12/03 03:13:32;;;;;;;10.77;9.93;;;;;;;0.95;64.26;100383.41;4974827;28;20498;-44
2021/12/03 03:15:59;;;;;;;11.83;11.20;;;;;;;0.94;64.38;100393.09;4974917;28;20432;-44
2021/12/03 03:18:29;;;;;;;11.27;10.40;;;;;;;0.98;64.44;100398.88;4975149;28;20498;-44
2021/12/03 03:21:00;;;;;;;10.57;9.87;;;;;;;0.99;64.27;100397.88;4974463;28;20471;-47
2021/12/03 03:23:28;;;;;;;11.00;10.27;;;;;;;1.00;63.88;100394.31;4974669;28;20486;-48
2021/12/03 03:25:57;;;;;;;10.47;9.80;;;;;;;0.99;64.15;100385.59;4974835;28;20439;-46
2021/12/03 03:28:25;;;;;;;9.73;9.23;;;;;;;0.98;65.11;100386.59;4974607;28;20460;-43
2021/12/03 03:30:57;;;;;;;10.47;9.17;;;;;;;0.94;66.46;100387.84;4974308;28;20523;-44
2021/12/03 03:33:25;;;;;;;9.50;8.90;;;;;;;0.95;66.71;100378.16;4974622;28;20519;-44
2021/12/03 03:35:52;;;;;;;9.40;9.00;;;;;;;0.96;65.67;100383.25;4974659;28;20831;-43
2021/12/03 03:38:20;;;;;;;9.20;8.90;;;;;;;0.98;65.30;100398.88;4974300;28;20465;-45
2021/12/03 03:40:48;;;;;;;9.40;9.00;;;;;;;1.01;64.29;100403.84;4973941;28;20456;-45
2021/12/03 03:43:18;;;;;;;10.10;9.10;;;;;;;1.04;63.58;100422.78;4974540;28;20487;-44
2021/12/03 03:45:46;;;;;;;10.23;9.00;;;;;;;1.07;60.49;100405.91;4974604;28;20439;-44
2021/12/03 03:48:15;;;;;;;9.10;8.77;;;;;;;1.13;54.42;100352.81;4974436;28;20461;-46
2021/12/03 03:50:43;;;;;;;9.33;8.90;;;;;;;1.18;54.13;100340.03;4973886;28;20463;-46
2021/12/03 03:53:10;;;;;;;12.20;11.03;;;;;;;1.23;53.62;100340.44;4974032;28;20434;-46
2021/12/03 03:55:38;;;;;;;11.57;10.70;;;;;;;1.26;54.96;100329.63;4974255;28;20451;-44
2021/12/03 03:58:06;;;;;;;10.13;9.47;;;;;;;1.27;56.26;100327.84;4974466;28;20456;-47
2021/12/03 04:00:37;;;;;;;10.63;9.93;;;;;;;1.27;58.20;100333.09;4973808;28;20467;-44
2021/12/03 04:03:05;;;;;;;9.90;9.47;;;;;;;1.25;59.30;100329.78;4973909;28;20574;-46
2021/12/03 04:05:34;;;;;;;9.80;9.30;;;;;;;1.24;60.05;100330.75;4974047;28;20442;-47
2021/12/03 04:08:03;;;;;;;10.23;9.83;;;;;;;1.23;60.40;100324.66;4973811;28;20461;-44
2021/12/03 04:10:31;;;;;;;9.00;8.50;;;;;;;1.22;61.16;100337.97;4973695;28;20505;-45
2021/12/03 04:12:59;;;;;;;8.43;8.13;;;;;;;1.20;62.40;100335.47;4972769;28;20976;-44
2021/12/03 04:15:26;;;;;;;9.23;8.60;;;;;;;1.22;61.43;100362.44;4974000;28;20446;-45
2021/12/03 04:17:54;;;;;;;9.20;8.37;;;;;;;1.28;57.00;100400.41;4973748;28;20461;-45
2021/12/03 04:20:22;;;;;;;8.00;7.30;;;;;;;1.28;56.04;100424.88;4973223;28;20464;-46
2021/12/03 04:22:52;;;;;;;9.53;8.57;;;;;;;1.31;50.72;100429.84;4973511;28;21090;-44
2021/12/03 04:25:22;;;;;;;9.60;8.73;;;;;;;1.25;48.93;100425.19;4973678;28;20447;-44
2021/12/03 04:27:51;;;;;;;8.90;8.50;;;;;;;1.20;49.16;100408.16;4972300;28;20454;-45
2021/12/03 04:30:22;;;;;;;9.20;8.50;;;;;;;1.23;47.05;100403.47;4970174;28;20471;-43
2021/12/03 04:32:50;;;;;;;10.30;9.90;;;;;;;1.26;47.19;100371.66;4965814;28;20435;-44
2021/12/03 04:35:19;;;;;;;9.37;9.17;;;;;;;1.26;49.43;100353.28;4974456;28;20445;-44
2021/12/03 04:37:47;;;;;;;8.90;8.50;;;;;;;1.27;50.71;100341.78;4973633;28;20469;-43
2021/12/03 04:40:18;;;;;;;10.73;9.90;;;;;;;1.30;51.37;100340.66;4964879;28;20467;-43
2021/12/03 04:42:46;;;;;;;8.97;8.40;;;;;;;1.31;52.28;100353.69;4973072;28;20421;-44
2021/12/03 04:45:18;;;;;;;7.93;7.63;;;;;;;1.33;52.76;100356.13;4973374;28;20816;-44
2021/12/03 04:47:46;;;;;;;8.13;7.93;;;;;;;1.33;53.15;100349.09;4973287;28;20451;-44
2021/12/03 04:50:18;;;;;;;9.70;9.00;;;;;;;1.37;53.02;100347.84;4973032;28;20470;-44
2021/12/03 04:52:46;;;;;;;9.93;9.03;;;;;;;1.39;54.35;100335.38;4973141;28;20429;-44
2021/12/03 04:55:13;;;;;;;15.93;9.13;;;;;;;1.48;50.92;100333.66;4973208;28;20442;-44
2021/12/03 04:57:43;;;;;;;9.00;8.60;;;;;;;1.48;52.76;100323.16;4973161;28;20436;-43
2021/12/03 05:00:15;;;;;;;9.50;8.80;;;;;;;1.48;54.57;100326.59;4972727;28;20457;-43
2021/12/03 05:02:42;;;;;;;9.00;8.60;;;;;;;1.49;55.18;100322.97;4973136;28;20457;-44
2021/12/03 05:05:10;;;;;;;10.43;9.83;;;;;;;1.49;56.42;100324.81;4972035;28;20477;-43
2021/12/03 05:07:57;;;;;;;9.20;9.00;;;;;;;1.49;57.38;100327.44;4973131;28;20438;-44
2021/12/03 05:10:25;;;;;;;9.80;9.17;;;;;;;1.52;56.72;100333.19;4972331;28;20462;-44
2021/12/03 05:12:57;;;;;;;11.40;9.30;;;;;;;1.53;58.23;100332.22;4973028;28;20438;-45
2021/12/03 05:15:31;;;;;;;9.67;8.97;;;;;;;1.55;59.13;100329.47;4973396;28;20828;-44
2021/12/03 05:17:59;;;;;;;8.97;8.37;;;;;;;1.54;59.83;100325.19;4972963;28;20820;-44
2021/12/03 05:20:28;;;;;;;10.47;9.90;;;;;;;1.54;60.59;100339.16;4972523;28;20476;-46
2021/12/03 05:22:57;;;;;;;8.70;8.30;;;;;;;1.51;61.49;100365.72;4972654;28;20433;-44
2021/12/03 05:25:25;;;;;;;9.47;8.97;;;;;;;1.52;61.59;100359.47;4976867;28;20485;-45
2021/12/03 05:27:54;;;;;;;9.30;8.70;;;;;;;1.54;61.85;100375.94;4977009;28;20461;-44
2021/12/03 05:30:22;;;;;;;8.83;8.30;;;;;;;1.54;61.98;100370.69;4976374;28;20476;-45
2021/12/03 05:32:50;;;;;;;9.10;8.20;;;;;;;1.49;63.59;100383.41;4976667;28;20437;-44
2021/12/03 05:35:18;;;;;;;8.03;7.53;;;;;;;1.53;62.35;100373.44;4976808;28;20444;-45
2021/12/03 05:37:46;;;;;;;7.57;7.17;;;;;;;1.54;62.80;100373.31;4976517;28;20473;-44
2021/12/03 05:40:15;;;;;;;8.10;7.50;;;;;;;1.57;62.27;100373.00;4968152;28;21036;-43
2021/12/03 05:42:44;;;;;;;8.03;7.40;;;;;;;1.56;64.34;100388.91;4976416;28;20965;-43
2021/12/03 05:45:16;;;;;;;8.07;7.40;;;;;;;1.58;64.93;100381.72;4976731;28;20508;-44
2021/12/03 05:47:44;;;;;;;7.80;7.30;;;;;;;1.56;65.60;100373.97;4976726;28;20448;-44
2021/12/03 05:50:13;;;;;;;7.77;7.27;;;;;;;1.56;65.36;100376.59;4976069;28;20466;-45
2021/12/03 05:52:42;;;;;;;8.07;7.77;;;;;;;1.54;67.33;100375.09;4976298;28;20948;-43
2021/12/03 05:55:10;;;;;;;7.00;6.80;;;;;;;1.53;67.03;100382.16;4976577;28;20442;-43
2021/12/03 05:57:38;;;;;;;7.93;7.40;;;;;;;1.52;67.07;100375.22;4976374;28;20435;-43
2021/12/03 06:00:09;;;;;;;8.03;7.50;;;;;;;1.49;68.49;100372.91;4976006;28;20793;-44
2021/12/03 06:02:38;;;;;;;8.03;7.50;;;;;;;1.49;68.84;100374.72;4975993;28;20466;-44
2021/12/03 06:05:07;;;;;;;8.30;6.83;;;;;;;1.48;68.79;100384.41;4976375;28;20532;-44
2021/12/03 06:07:34;;;;;;;8.00;7.30;;;;;;;1.48;69.03;100381.78;4976390;28;20437;-45
2021/12/03 06:10:02;;;;;;;9.87;7.87;;;;;;;1.45;70.48;100366.31;4975750;28;20467;-44
2021/12/03 06:12:30;;;;;;;11.10;7.67;;;;;;;1.42;70.99;100369.22;4976031;28;20440;-45
2021/12/03 06:14:58;;;;;;;6.93;6.70;;;;;;;1.39;72.34;100369.53;4975956;28;20437;-45
2021/12/03 06:17:25;;;;;;;10.30;8.50;;;;;;;1.34;72.26;100368.31;4976104;28;20437;-44
2021/12/03 06:19:54;;;;;;;8.10;7.60;;;;;;;1.32;72.76;100362.34;4975757;28;20535;-46
2021/12/03 06:22:22;;;;;;;8.97;8.37;;;;;;;1.29;72.47;100358.22;4975893;28;20436;-44
2021/12/03 06:24:50;;;;;;;8.70;8.20;;;;;;;1.26;72.55;100349.81;4975749;28;20477;-45
2021/12/03 06:27:17;;;;;;;13.03;9.63;;;;;;;1.23;72.38;100358.81;4975927;28;20436;-44
2021/12/03 06:29:45;;;;;;;10.77;9.10;;;;;;;1.19;72.46;100349.59;4975202;28;20462;-45
2021/12/03 06:32:13;;;;;;;10.60;8.37;;;;;;;1.18;72.01;100352.34;4975689;28;20447;-44
2021/12/03 06:34:40;;;;;;;10.00;8.97;;;;;;;1.17;71.52;100356.78;4975250;28;20436;-46
2021/12/03 06:37:10;;;;;;;7.80;7.40;;;;;;;1.18;70.43;100361.06;4975179;28;20436;-49
2021/12/03 06:39:38;;;;;;;8.63;7.50;;;;;;;1.19;67.88;100357.47;4974900;28;20469;-44
2021/12/03 06:42:06;;;;;;;8.50;7.80;;;;;;;1.26;66.46;100353.28;4975402;28;20441;-43
2021/12/03 06:44:34;;;;;;;8.90;7.67;;;;;;;1.31;65.31;100348.41;4975458;28;20545;-43
2021/12/03 06:47:03;;;;;;;9.83;7.43;;;;;;;1.38;64.56;100343.38;4975431;28;20925;-44
2021/12/03 06:49:33;;;;;;;8.53;7.70;;;;;;;1.42;64.05;100329.00;4975341;28;20464;-44
2021/12/03 06:52:03;;;;;;;8.37;7.70;;;;;;;1.46;63.96;100335.63;4975237;28;20467;-45
2021/12/03 06:54:34;;;;;;;8.50;7.90;;;;;;;1.48;63.96;100325.78;4975155;28;20439;-47
2021/12/03 06:57:04;;;;;;;11.73;9.70;;;;;;;1.51;63.71;100321.06;4975389;28;20433;-44
2021/12/03 06:59:33;;;;;;;8.30;7.80;;;;;;;1.53;63.33;100320.88;4975366;28;20456;-44
2021/12/03 07:02:01;;;;;;;8.30;7.80;;;;;;;1.54;63.38;100322.53;4975123;28;20989;-44
2021/12/03 07:04:29;;;;;;;9.23;8.27;;;;;;;1.56;63.34;100331.09;4974947;28;20475;-46
2021/12/03 07:06:56;;;;;;;8.57;7.70;;;;;;;1.59;62.06;100352.66;4975178;28;20810;-45
2021/12/03 07:09:24;;;;;;;8.87;8.20;;;;;;;1.62;59.16;100373.38;4974999;28;20455;-44
2021/12/03 07:11:53;;;;;;;14.23;8.20;;;;;;;1.64;57.78;100371.44;4975082;28;20489;-43
2021/12/03 07:14:21;;;;;;;8.07;7.50;;;;;;;1.65;54.16;100365.22;4976212;28;20438;-44
2021/12/03 07:16:48;;;;;;;8.80;7.90;;;;;;;1.65;51.51;100352.06;4975320;28;20453;-45
2021/12/03 07:19:16;;;;;;;9.03;8.37;;;;;;;1.72;50.76;100351.47;4974842;28;20459;-44
2021/12/03 07:21:44;;;;;;;8.97;8.10;;;;;;;1.75;51.09;100351.16;4974385;28;20475;-44
2021/12/03 07:24:11;;;;;;;8.80;8.00;;;;;;;1.77;52.30;100344.78;4975059;28;20815;-45
2021/12/03 07:26:39;;;;;;;8.00;7.10;;;;;;;1.82;52.76;100345.19;4974926;28;20853;-44
2021/12/03 07:29:08;;;;;;;7.43;7.00;;;;;;;1.82;54.88;100349.59;4974719;28;20459;-44
2021/12/03 07:31:36;;;;;;;7.87;7.20;;;;;;;1.85;56.07;100360.63;4974376;28;20469;-45
2021/12/03 07:34:03;;;;;;;7.37;6.90;;;;;;;1.88;56.47;100355.06;4974379;28;20435;-44
2021/12/03 07:36:31;;;;;;;8.20;7.53;;;;;;;1.89;57.91;100348.00;4974837;28;20445;-47
2021/12/03 07:38:59;;;;;;;8.37;7.60;;;;;;;1.92;58.15;100342.44;4974343;28;20476;-44
2021/12/03 07:41:26;;;;;;;8.13;7.73;;;;;;;1.93;59.08;100338.84;4974275;28;20461;-43
2021/12/03 07:43:59;;;;;;;8.60;8.07;;;;;;;1.93;60.41;100338.84;4974412;28;20800;-45
2021/12/03 07:46:28;;;;;;;7.87;7.30;;;;;;;1.93;61.14;100333.59;4974126;28;20475;-44
2021/12/03 07:48:55;;;;;;;8.13;7.47;;;;;;;1.93;63.18;100333.59;4974238;28;20521;-44
2021/12/03 07:51:23;;;;;;;7.40;6.80;;;;;;;1.95;63.01;100329.00;4973926;28;21118;-43
2021/12/03 07:53:50;;;;;;;9.47;8.60;;;;;;;1.98;63.04;100323.44;4974072;28;20533;-43
2021/12/03 07:56:18;;;;;;;8.33;7.63;;;;;;;2.02;62.90;100324.81;4974345;28;20795;-44
2021/12/03 07:58:45;;;;;;;7.13;6.80;;;;;;;2.02;64.38;100327.44;4974053;28;20466;-43
2021/12/03 08:01:13;;;;;;;13.20;7.70;;;;;;;2.06;64.72;100318.28;4973816;28;21049;-43
2021/12/03 08:03:43;;;;;;;8.03;7.53;;;;;;;2.06;65.64;100329.59;4974143;28;20477;-43
2021/12/03 08:06:12;;;;;;;9.53;7.23;;;;;;;2.06;65.77;100320.91;4974118;28;20478;-44
2021/12/03 08:08:41;;;;;;;7.23;6.63;;;;;;;2.06;65.61;100320.91;4973920;28;20465;-44
2021/12/03 08:11:09;;;;;;;9.83;7.63;;;;;;;2.09;65.30;100323.22;4973631;28;20477;-43
2021/12/03 08:13:37;;;;;;;8.80;8.03;;;;;;;2.11;65.35;100318.63;4973588;28;20963;-44
2021/12/03 08:16:05;;;;;;;15.73;8.07;;;;;;;2.13;65.15;100335.91;4973826;28;20441;-46
2021/12/03 08:18:34;;;;;;;7.10;6.80;;;;;;;2.10;66.22;100333.59;4973906;28;20456;-45
2021/12/03 08:21:04;;;;;;;9.87;7.47;;;;;;;2.11;65.65;100337.03;4973564;28;20470;-44
2021/12/03 08:23:31;;;;;;;8.37;7.50;;;;;;;2.11;65.63;100329.97;4974011;28;20472;-44
2021/12/03 08:25:59;;;;;;;8.43;7.73;;;;;;;2.15;64.52;100325.25;4973720;28;20481;-46
2021/12/03 08:28:27;;;;;;;13.07;7.70;;;;;;;2.18;63.72;100320.47;4973489;28;20461;-47
2021/12/03 08:30:55;;;;;;;8.67;8.03;;;;;;;2.22;63.27;100326.28;4973332;28;20829;-44
2021/12/03 08:33:22;;;;;;;7.90;7.17;;;;;;;2.24;63.84;100319.88;4973522;28;20532;-44
2021/12/03 08:35:50;;;;;;;7.37;6.87;;;;;;;2.31;63.27;100327.16;4973495;28;20530;-45
2021/12/03 08:38:20;;;;;;;9.03;8.13;;;;;;;2.32;64.36;100334.91;4973184;28;21020;-44
2021/12/03 08:41:09;;;;;;;12.00;8.30;;;;;;;2.35;64.78;100337.22;4973110;28;20467;-44
2021/12/03 08:43:36;;;;;;;9.47;8.77;;;;;;;2.36;65.61;100333.59;4973326;28;20431;-44
2021/12/03 08:46:09;;;;;;;7.97;7.53;;;;;;;2.39;65.40;100324.59;4997229;23;20498;-49
2021/12/03 08:48:41;;;;;;;9.67;8.67;;;;;;;2.41;65.08;100328.72;4973342;28;20462;-46
2021/12/03 08:51:21;;;;;;;9.60;8.13;;;;;;;2.44;65.43;100336.31;4973024;28;20474;-46
2021/12/03 08:56:35;;;;;;;14.83;7.13;;;;;;;2.46;66.86;100321.19;4973418;28;20478;-46
2021/12/03 08:59:04;;;;;;;11.93;7.80;;;;;;;2.51;65.49;100329.44;4972785;28;20445;-46
2021/12/03 09:01:31;;;;;;;9.07;6.83;;;;;;;2.55;65.23;100325.53;4972772;28;20464;-45
2021/12/03 09:03:59;;;;;;;7.83;7.13;;;;;;;2.57;66.17;100326.19;4973017;28;20439;-45
2021/12/03 09:06:27;;;;;;;8.10;7.00;;;;;;;2.59;65.95;100318.97;4973213;28;20524;-45
2021/12/03 09:08:56;;;;;;;7.43;6.83;;;;;;;2.62;66.01;100313.41;4973221;28;20936;-44
2021/12/03 09:11:25;;;;;;;12.43;8.13;;;;;;;2.67;65.28;100318.19;4972559;28;20808;-43
2021/12/03 09:13:53;;;;;;;8.90;7.47;;;;;;;2.68;66.42;100328.56;4972974;28;20434;-44
2021/12/03 09:16:22;;;;;;;6.77;6.40;;;;;;;2.70;66.48;100326.59;4973035;28;20462;-46
2021/12/03 09:18:51;;;;;;;8.07;7.47;;;;;;;2.72;66.44;100324.63;4973315;28;20464;-43
2021/12/03 09:21:22;;;;;;;8.80;7.50;;;;;;;2.76;65.86;100323.34;4972799;28;20491;-48
2021/12/03 09:24:03;;;;;;;8.20;7.37;;;;;;;2.81;65.15;100328.13;4973067;28;20441;-46
2021/12/03 09:26:35;;;;;;;11.93;11.03;;;;;;;2.83;66.40;100327.97;4972863;28;20482;-44
2021/12/03 09:29:06;;;;;;;9.40;8.80;;;;;;;2.87;65.83;100329.31;4973269;28;20428;-48
2021/12/03 09:31:36;;;;;;;9.50;8.70;;;;;;;2.87;66.18;100326.69;4972625;28;20552;-45
2021/12/03 09:34:07;;;;;;;13.37;9.60;;;;;;;2.87;66.92;100321.44;4972966;28;20441;-43
2021/12/03 09:36:36;;;;;;;10.43;8.63;;;;;;;2.86;68.02;100323.22;4973106;28;20466;-46
2021/12/03 09:39:05;;;;;;;11.23;8.30;;;;;;;2.81;69.22;100330.75;4972759;28;20443;-48
2021/12/03 09:41:35;;;;;;;10.10;8.53;;;;;;;2.76;68.91;100319.88;4964642;28;20542;-49
2021/12/03 09:44:03;;;;;;;8.67;7.80;;;;;;;2.73;69.07;100323.66;4972858;28;20438;-45
2021/12/03 09:46:31;;;;;;;8.50;7.73;;;;;;;2.69;68.58;100319.66;4972712;28;20490;-49
2021/12/03 09:52:04;;;;;;;14.07;9.53;;;;;;;2.70;66.24;100308.16;4972409;28;20466;-50
2021/12/03 09:54:43;;;;;;;11.13;10.10;;;;;;;2.66;65.74;100311.25;4972775;28;20881;-47
2021/12/03 09:57:18;;;;;;;14.73;13.47;;;;;;;2.67;64.19;100299.75;4972695;28;20474;-46
2021/12/03 10:14:05;;;;;;;20.40;17.90;;;;;;;2.70;66.24;100263.41;4976136;28;20465;-47
2021/12/03 10:16:53;;;;;;;19.03;17.23;;;;;;;2.68;67.83;100256.66;4976130;28;21014;-43
2021/12/03 10:19:31;;;;;;;19.50;17.40;;;;;;;2.64;68.71;100257.94;4976398;28;20451;-48
2021/12/03 10:22:14;;;;;;;20.97;16.67;;;;;;;2.59;68.91;100250.53;4975711;28;20466;-46
2021/12/03 10:30:46;;;;;;;20.20;18.40;;;;;;;2.51;70.33;100239.16;4940750;28;20460;-45
2021/12/03 10:33:43;;;;;;;20.90;18.90;;;;;;;2.48;69.73;100236.81;4975693;28;20847;-44
2021/12/03 10:36:28;;;;;;;19.50;17.73;;;;;;;2.49;69.94;100243.72;4975969;28;20463;-48
2021/12/03 10:39:14;;;;;;;20.43;18.67;;;;;;;2.45;69.17;100242.41;4975836;28;20438;-43
2021/12/03 10:41:53;;;;;;;19.40;17.70;;;;;;;2.44;67.87;100240.75;4968582;28;20459;-49
2021/12/03 10:44:32;;;;;;;21.40;18.73;;;;;;;2.44;66.86;100224.94;4975540;28;20950;-49
2021/12/03 10:47:12;;;;;;;21.97;19.80;;;;;;;2.51;65.89;100218.09;4975415;28;20983;-46
2021/12/03 10:52:52;;;;;;;23.13;20.70;;;;;;;2.61;65.56;100211.72;4973054;28;20452;-48
2021/12/03 10:55:56;;;;;;;22.20;17.40;;;;;;;2.67;66.68;100207.63;4975598;28;20455;-47
2021/12/03 10:58:58;;;;;;;27.03;18.47;;;;;;;2.71;67.94;100207.16;4975364;28;20441;-45
2021/12/03 11:01:58;;;;;;;18.27;16.53;;;;;;;2.79;68.60;100198.44;4975091;28;20462;-49
2021/12/03 11:05:02;;;;;;;22.50;17.97;;;;;;;2.86;68.59;100196.00;4975096;28;20431;-44
2021/12/03 11:07:58;;;;;;;20.77;18.53;;;;;;;2.90;68.78;100192.06;4975391;28;20485;-47
2021/12/03 12:25:14;;;;;;;19.33;17.47;;;;;;;3.66;85.42;100069.53;4973821;28;20434;-46
2021/12/03 13:25:55;;;;;;;24.07;14.93;;;;;;;3.19;90.89;100018.56;4958804;28;20447;-45
2021/12/03 14:02:18;;;;;;;30.23;23.27;;;;;;;2.83;82.09;99949.63;4974567;28;20469;-44
2021/12/03 14:08:01;;;;;;;31.10;23.60;;;;;;;2.69;80.35;99932.69;4920410;28;20473;-46
2021/12/03 14:36:33;;;;;;;23.13;18.60;;;;;;;2.15;76.17;99938.59;4974744;28;20465;-46
2021/12/03 14:42:02;;;;;;;28.87;19.60;;;;;;;2.06;74.81;99919.31;4966692;28;20471;-43
2021/12/03 14:44:33;;;;;;;23.77;19.67;;;;;;;2.05;74.39;99906.34;4974382;28;20452;-48
2021/12/03 14:47:33;;;;;;;24.27;19.67;;;;;;;2.03;73.65;99911.75;4974388;28;20930;-42
2021/12/03 14:50:22;;;;;;;22.30;19.37;;;;;;;2.02;73.24;99910.13;4974169;28;20450;-46
2021/12/03 14:53:10;;;;;;;26.87;20.30;;;;;;;2.00;72.26;99911.28;4973967;28;20431;-44
2021/12/03 14:55:38;;;;;;;27.47;19.43;;;;;;;1.96;72.39;99907.31;4973781;28;20493;-45
2021/12/03 14:58:11;;;;;;;27.47;20.33;;;;;;;1.96;72.12;99897.63;4973525;28;20442;-47
2021/12/03 15:00:49;;;;;;;28.77;19.60;;;;;;;1.89;72.12;99888.75;4973974;28;20474;-42
2021/12/03 15:03:41;;;;;;;27.30;20.13;;;;;;;1.83;72.24;99885.91;4973753;28;20442;-42
2021/12/03 15:06:23;;;;;;;24.97;18.90;;;;;;;1.78;71.62;99886.41;4974003;28;20463;-46
2021/12/03 15:08:56;;;;;;;20.60;18.27;;;;;;;1.75;71.09;99876.22;4974272;28;20483;-42
2021/12/03 15:11:51;;;;;;;25.50;19.13;;;;;;;1.72;70.44;99878.34;4973479;28;20838;-42
2021/12/03 15:23:11;;;;;;;23.77;17.60;;;;;;;1.64;67.25;99879.97;4965692;28;20807;-44
2021/12/03 15:25:56;;;;;;;23.23;17.37;;;;;;;1.63;67.39;99869.63;4973452;28;20484;-42
2021/12/03 15:34:18;;;;;;;24.03;18.43;;;;;;;1.56;66.83;99842.34;4970877;28;20444;-43
2021/12/03 15:37:07;;;;;;;20.50;18.30;;;;;;;1.51;66.57;99840.22;4973589;28;20453;-46
2021/12/03 15:39:52;;;;;;;20.97;16.57;;;;;;;1.47;65.61;99841.50;4972337;28;20430;-46
2021/12/03 15:56:36;;;;;;;19.77;17.27;;;;;;;1.51;64.89;99789.47;4972708;28;20460;-42
2021/12/03 16:04:40;;;;;;;18.23;16.60;;;;;;;1.49;63.73;99783.56;4972773;28;20533;-44
2021/12/03 16:10:05;;;;;;;16.53;14.87;;;;;;;1.51;62.79;99774.53;4969651;28;20491;-43